Davis Junction, IL (61020)

12:07 PM CST on December 02, 2016 (GMT -0600)
Lindenwood | | Change Station

Elev 764 ft 42.06 °N, 89.03 °W | Updated 29 seconds ago

Overcast
Overcast
37.0 °F
Feels Like 37 °F
N
2.0
Wind Variable Wind from SSW
Gusts 4.9 mph

Today
High -- | Low -- °F
--% Chance of Precip.
Yesterday
High -- | Low -- °F
Precip. -- in
Pressure 30.22 in
Visibility 10.0 miles
Clouds Scattered Clouds 2100 ft
Overcast 3100 ft
Windchill 37 °F
Dew Point 34 °F
Humidity 87%
Rainfall 0.00 in
Snow Depth Not available.
7:06 AM 4:25 PM
Waxing Crescent, 9% visible
METAR KRFD 021754Z 31007KT 10SM SCT021 OVC031 03/M01 A3020 RMK AO2 SLP232 60005 T00331006 10033 20006 51008
Pressure 30.22 in
Visibility 10.0 miles
Clouds Scattered Clouds 2100 ft
Overcast 3100 ft
Windchill 37 °F
Dew Point 34 °F
Humidity 87%
Rainfall 0.00 in
Snow Depth Not available.
7:06 AM 4:25 PM
Waxing Crescent, 9% visible
METAR KRFD 021754Z 31007KT 10SM SCT021 OVC031 03/M01 A3020 RMK AO2 SLP232 60005 T00331006 10033 20006 51008

10-Day Weather Forecast

Almanac

Astronomy

Dec. 02, 2016 Rise Set
Actual Time
Civil Twilight
Nautical Twilight
Astronomical Twilight
Moon
Length of Visible Light
Length of Day
Tomorrow will be .
, % of the Moon is Illuminated

Today's Extremes

State Highs State Lows

Community

WunderPhotos

Upload Photos

1,955,333 photos uploaded!

WunderBlog® & News

Nearby

Air Quality

  Air Quality AQ Index Pollutant
Not available.

Snow Depth

Station Depth Elevation

Earthquake Activity

City Distance Mag. Time & Date
Minimum magnitude displayed is 2.5.

Coastal Water Temperatures

Place Temperature

Stations

Nearby Weather Stations

Station Location Temp. Windchill Dew Point Humidity Wind Precip. Elev Updated Type
                   

Watches & Warnings

There are currently no watches in effect.